Time;durP1;ratioP1;P1;durP2;ratioP2;P2;SDS_P1;SDS_P2;PMS_P1;PMS_P2;Temp;Humidity;BMP_temperature;BMP_pressure;BME280_temperature;BME280_humidity;BME280_pressure;Samples;Min_cycle;Max_cycle;Signal;HPM_P1;HPM_P2
2022/07/05 00:01:35;;;;;;;5.88;3.47;;;18.70;99.90;;;;;;4992991;28;20427;-89
2022/07/05 00:04:03;;;;;;;10.38;4.00;;;18.60;99.90;;;;;;4995239;28;20396;-88
2022/07/05 00:06:31;;;;;;;6.70;3.78;;;18.70;99.90;;;;;;4996579;28;20413;-89
2022/07/05 00:08:58;;;;;;;6.50;3.55;;;18.60;99.90;;;;;;5003528;28;20405;-88
2022/07/05 00:11:26;;;;;;;7.00;3.80;;;18.60;99.90;;;;;;5010756;28;20395;-88
2022/07/05 00:13:54;;;;;;;8.52;3.80;;;18.60;99.90;;;;;;5014387;28;20483;-90
2022/07/05 00:16:23;;;;;;;3.65;2.95;;;18.50;99.90;;;;;;5013185;28;20422;-89
2022/07/05 00:18:51;;;;;;;7.03;3.30;;;18.50;99.90;;;;;;5013563;28;20800;-87
2022/07/05 00:21:19;;;;;;;5.85;3.05;;;18.50;99.90;;;;;;5012810;28;20407;-89
2022/07/05 00:23:47;;;;;;;5.13;3.72;;;18.60;99.90;;;;;;5013580;28;20383;-87
2022/07/05 00:26:14;;;;;;;5.03;3.75;;;18.70;99.90;;;;;;5008736;28;20409;-87
2022/07/05 00:28:42;;;;;;;6.95;3.70;;;18.60;99.90;;;;;;4994785;28;20718;-89
2022/07/05 00:31:09;;;;;;;6.90;3.63;;;18.50;99.90;;;;;;4994645;28;20396;-88
2022/07/05 00:33:37;;;;;;;7.05;3.88;;;18.50;99.90;;;;;;4994740;28;20396;-87
2022/07/05 00:36:05;;;;;;;8.33;3.90;;;18.50;99.90;;;;;;4994691;28;20867;-88
2022/07/05 00:38:32;;;;;;;7.03;3.78;;;18.40;99.90;;;;;;5008804;28;20404;-88
2022/07/05 00:41:01;;;;;;;4.97;3.88;;;18.30;99.90;;;;;;5013097;28;20912;-89
2022/07/05 00:43:28;;;;;;;8.43;3.70;;;18.30;99.90;;;;;;5012258;28;20383;-87
2022/07/05 00:45:56;;;;;;;4.50;3.47;;;18.30;99.90;;;;;;4993150;28;20832;-87
2022/07/05 00:48:24;;;;;;;5.10;3.25;;;18.20;99.90;;;;;;4993226;28;20400;-87
2022/07/05 00:50:52;;;;;;;4.60;3.17;;;18.20;99.90;;;;;;5008713;28;20393;-87
2022/07/05 00:53:20;;;;;;;6.15;3.40;;;18.20;99.90;;;;;;5008063;28;20391;-89
2022/07/05 00:55:48;;;;;;;5.88;3.50;;;18.20;99.90;;;;;;5012410;28;20750;-88
2022/07/05 00:58:15;;;;;;;7.67;3.27;;;18.10;99.90;;;;;;5000361;28;20393;-88
2022/07/05 01:00:43;;;;;;;4.10;2.90;;;18.00;99.90;;;;;;4997397;28;20958;-89
2022/07/05 01:03:12;;;;;;;4.55;3.80;;;18.00;99.90;;;;;;4994234;28;20895;-86
2022/07/05 01:05:40;;;;;;;6.10;3.35;;;18.10;99.90;;;;;;4997764;28;20477;-88
2022/07/05 01:08:08;;;;;;;6.38;3.50;;;18.10;99.90;;;;;;5012484;28;20742;-89
2022/07/05 01:10:37;;;;;;;4.00;2.28;;;18.10;99.90;;;;;;5005621;28;20405;-88
2022/07/05 01:13:05;;;;;;;4.93;3.10;;;18.10;99.90;;;;;;5004792;28;20403;-88
2022/07/05 01:15:33;;;;;;;4.57;3.05;;;18.10;99.90;;;;;;4994168;28;20396;-87
2022/07/05 01:18:01;;;;;;;4.90;3.22;;;18.00;99.90;;;;;;4994050;28;20401;-89
2022/07/05 01:20:28;;;;;;;6.97;3.90;;;17.90;99.90;;;;;;4993861;28;20480;-90
2022/07/05 01:22:59;;;;;;;6.05;2.78;;;17.90;99.90;;;;;;4993452;28;20483;-87
2022/07/05 01:25:28;;;;;;;5.75;2.50;;;17.90;99.90;;;;;;4997057;28;20389;-88
2022/07/05 01:27:58;;;;;;;4.68;2.40;;;17.80;99.90;;;;;;4997677;28;20387;-89
2022/07/05 01:30:26;;;;;;;6.78;3.00;;;17.90;99.90;;;;;;5012530;28;20390;-90
2022/07/05 01:32:54;;;;;;;8.38;2.70;;;17.80;99.90;;;;;;5011616;28;20423;-88
2022/07/05 01:35:23;;;;;;;6.53;2.78;;;17.90;99.90;;;;;;4995046;28;20912;-87
2022/07/05 01:37:52;;;;;;;6.87;2.80;;;17.90;99.90;;;;;;5011208;28;20400;-88
2022/07/05 01:40:20;;;;;;;3.72;2.70;;;17.80;99.90;;;;;;5011519;28;20795;-88
2022/07/05 01:42:48;;;;;;;4.50;2.97;;;17.90;99.90;;;;;;4991983;28;20974;-87
2022/07/05 01:48:12;;;;;;;5.37;2.77;;;17.80;99.90;;;;;;4993221;28;20559;-88
2022/07/05 01:50:54;;;;;;;6.80;2.83;;;17.70;99.90;;;;;;5007542;28;20403;-88
2022/07/05 01:53:28;;;;;;;4.10;2.30;;;17.70;99.90;;;;;;5007914;28;20393;-89
2022/07/05 01:55:57;;;;;;;4.68;2.90;;;17.70;99.90;;;;;;5008074;28;20906;-84
2022/07/05 01:58:25;;;;;;;4.63;2.50;;;17.70;99.90;;;;;;5007918;28;20869;-87
2022/07/05 02:00:55;;;;;;;4.03;2.30;;;17.70;99.90;;;;;;4992735;28;20467;-89
2022/07/05 02:03:26;;;;;;;4.35;2.50;;;17.70;99.90;;;;;;4993267;28;20437;-89
2022/07/05 02:06:13;;;;;;;4.55;2.80;;;17.70;99.90;;;;;;5003482;28;20459;-88
2022/07/05 02:08:41;;;;;;;4.65;2.60;;;17.60;99.90;;;;;;5010139;28;20897;-88
2022/07/05 02:11:09;;;;;;;4.25;2.65;;;17.60;99.90;;;;;;5010906;28;20490;-89
2022/07/05 02:13:39;;;;;;;3.90;2.78;;;17.50;99.90;;;;;;5011113;28;20453;-89
2022/07/05 02:16:08;;;;;;;4.10;2.45;;;17.50;99.90;;;;;;5010968;28;20485;-88
2022/07/05 02:18:36;;;;;;;3.35;2.65;;;17.60;99.90;;;;;;5009975;28;20395;-87
2022/07/05 02:21:04;;;;;;;3.60;2.25;;;17.50;99.90;;;;;;5007653;28;20962;-88
2022/07/05 02:23:32;;;;;;;4.55;2.50;;;17.50;99.90;;;;;;4991825;28;20524;-88
2022/07/05 02:26:00;;;;;;;7.13;3.00;;;17.50;99.90;;;;;;5008799;28;20488;-88
2022/07/05 02:28:29;;;;;;;3.95;2.90;;;17.50;99.90;;;;;;5010476;28;20403;-88
2022/07/05 02:30:57;;;;;;;7.15;2.88;;;17.40;99.90;;;;;;5010890;28;20766;-88
2022/07/05 02:33:25;;;;;;;5.03;2.45;;;17.50;99.90;;;;;;5011161;28;20441;-88
2022/07/05 02:35:53;;;;;;;5.22;2.30;;;17.50;99.90;;;;;;5011746;28;20465;-90
2022/07/05 02:38:21;;;;;;;3.72;2.38;;;17.60;99.90;;;;;;5011741;28;20754;-87
2022/07/05 02:40:50;;;;;;;4.38;2.30;;;17.50;99.90;;;;;;4991288;28;20838;-89
2022/07/05 02:43:17;;;;;;;5.05;2.25;;;17.60;99.90;;;;;;4995639;28;20428;-89
2022/07/05 02:45:46;;;;;;;5.40;2.55;;;17.60;99.90;;;;;;4999050;28;20800;-88
2022/07/05 02:48:15;;;;;;;4.43;2.20;;;17.50;99.90;;;;;;5003292;28;20829;-90
2022/07/05 02:50:43;;;;;;;3.90;2.45;;;17.50;99.90;;;;;;5006798;28;20896;-89
2022/07/05 02:53:11;;;;;;;5.60;2.85;;;17.50;99.90;;;;;;4991280;28;20487;-89
2022/07/05 02:55:39;;;;;;;5.40;2.92;;;17.50;99.90;;;;;;5007596;28;20480;-89
2022/07/05 02:58:06;;;;;;;5.85;2.75;;;17.40;99.90;;;;;;4990517;28;20408;-88
2022/07/05 03:00:35;;;;;;;2.60;2.40;;;17.40;99.90;;;;;;4995967;28;20419;-87
2022/07/05 03:03:03;;;;;;;5.15;2.50;;;17.40;99.90;;;;;;5008541;28;20419;-89
2022/07/05 03:05:32;;;;;;;3.10;2.78;;;17.40;99.90;;;;;;5010447;28;20431;-88
2022/07/05 03:08:03;;;;;;;4.30;2.78;;;17.40;99.90;;;;;;5010555;28;20901;-88
2022/07/05 03:10:34;;;;;;;5.63;3.08;;;17.50;99.90;;;;;;5010355;28;20406;-87
2022/07/05 03:13:03;;;;;;;3.78;2.60;;;17.40;99.90;;;;;;5009601;28;20399;-90
2022/07/05 03:15:31;;;;;;;3.90;2.90;;;17.50;99.90;;;;;;4992091;28;20943;-89
2022/07/05 03:18:00;;;;;;;3.97;2.78;;;17.40;99.90;;;;;;4991001;28;20892;-87
2022/07/05 03:20:31;;;;;;;3.35;2.60;;;17.50;99.90;;;;;;4990934;28;20443;-88
2022/07/05 03:22:58;;;;;;;4.82;2.90;;;17.50;99.90;;;;;;5007104;28;20463;-87
2022/07/05 03:25:34;;;;;;;5.05;3.42;;;17.40;99.90;;;;;;4991811;28;20395;-89
2022/07/05 03:28:04;;;;;;;4.17;3.10;;;17.50;99.90;;;;;;4993392;28;20402;-89
2022/07/05 03:30:32;;;;;;;5.07;3.55;;;17.40;99.90;;;;;;5010266;28;20395;-89
2022/07/05 03:33:00;;;;;;;5.20;3.10;;;17.40;99.90;;;;;;5009806;28;20433;-88
2022/07/05 03:35:30;;;;;;;5.03;2.80;;;17.40;99.90;;;;;;5012331;28;20407;-88
2022/07/05 03:37:59;;;;;;;4.32;3.35;;;17.40;99.90;;;;;;5014425;28;20877;-88
2022/07/05 03:40:27;;;;;;;7.38;3.47;;;17.40;99.90;;;;;;5008765;28;20495;-87
2022/07/05 03:42:55;;;;;;;7.53;4.00;;;17.40;99.90;;;;;;5013483;28;20445;-89
2022/07/05 03:45:25;;;;;;;5.83;3.53;;;17.40;99.90;;;;;;5011546;28;20442;-88
2022/07/05 03:47:58;;;;;;;4.70;3.50;;;17.40;99.90;;;;;;5013456;28;20886;-89
2022/07/05 03:50:45;;;;;;;6.18;4.20;;;17.40;99.90;;;;;;5008137;28;20443;-90
2022/07/05 03:53:12;;;;;;;6.03;5.00;;;17.40;99.90;;;;;;5010455;28;20479;-89
2022/07/05 03:55:42;;;;;;;5.38;4.40;;;17.40;99.90;;;;;;5011877;28;20415;-89
2022/07/05 03:58:10;;;;;;;6.90;4.80;;;17.40;99.90;;;;;;5010935;28;20903;-88
2022/07/05 04:00:38;;;;;;;5.97;4.60;;;17.40;99.90;;;;;;5009296;28;20445;-89
2022/07/05 04:03:08;;;;;;;6.93;5.07;;;17.50;99.90;;;;;;5001390;28;20409;-88
2022/07/05 04:05:37;;;;;;;6.20;4.88;;;17.40;99.90;;;;;;5002098;28;20476;-88
2022/07/05 04:08:04;;;;;;;6.55;5.15;;;17.50;99.90;;;;;;5007733;28;20406;-88
2022/07/05 04:10:39;;;;;;;7.35;5.22;;;17.60;99.90;;;;;;5010424;28;20410;-89
2022/07/05 04:13:07;;;;;;;5.68;5.18;;;17.50;99.90;;;;;;5010746;28;20958;-89
2022/07/05 04:15:35;;;;;;;8.25;5.63;;;17.40;99.90;;;;;;5004545;28;20389;-87
2022/07/05 04:18:04;;;;;;;8.25;6.30;;;17.40;99.90;;;;;;5013084;28;20430;-88
2022/07/05 04:20:36;;;;;;;9.37;6.20;;;17.40;99.90;;;;;;5009595;28;20411;-88
2022/07/05 04:23:05;;;;;;;9.38;6.82;;;17.40;99.90;;;;;;5009708;28;20467;-88
2022/07/05 04:25:32;;;;;;;10.10;5.43;;;17.50;99.90;;;;;;4994556;28;20393;-87
2022/07/05 04:28:09;;;;;;;6.70;5.30;;;17.50;99.90;;;;;;5007301;28;20872;-86
2022/07/05 04:30:38;;;;;;;6.75;4.95;;;17.50;99.90;;;;;;5009124;28;20576;-87
2022/07/05 04:33:08;;;;;;;7.67;5.17;;;17.50;99.90;;;;;;5007743;28;20408;-87
2022/07/05 04:35:37;;;;;;;8.35;4.88;;;17.50;99.90;;;;;;5009198;28;20401;-87
2022/07/05 04:38:05;;;;;;;5.88;4.90;;;17.50;99.90;;;;;;5007341;28;20412;-87
2022/07/05 04:40:36;;;;;;;6.55;4.78;;;17.50;99.90;;;;;;5005199;28;20409;-87
2022/07/05 04:43:04;;;;;;;6.50;5.00;;;17.50;99.90;;;;;;5013664;28;20406;-87
2022/07/05 04:45:32;;;;;;;5.40;4.30;;;17.50;99.90;;;;;;5008166;28;20430;-86
2022/07/05 04:48:00;;;;;;;4.82;3.85;;;17.60;99.90;;;;;;5009650;28;20387;-87
2022/07/05 04:50:29;;;;;;;6.28;4.00;;;17.60;99.90;;;;;;5008460;28;20902;-88
2022/07/05 04:52:57;;;;;;;7.25;4.60;;;17.60;99.90;;;;;;5012343;28;20399;-87
2022/07/05 04:55:25;;;;;;;7.00;4.40;;;17.60;99.90;;;;;;5012556;28;20434;-86
2022/07/05 04:57:53;;;;;;;5.32;4.82;;;17.60;99.90;;;;;;5012445;28;20399;-86
2022/07/05 05:00:21;;;;;;;6.30;4.20;;;17.70;99.90;;;;;;5013188;28;20391;-85
2022/07/05 05:02:48;;;;;;;6.20;4.85;;;17.70;99.90;;;;;;5002734;28;20476;-87
2022/07/05 05:05:16;;;;;;;6.88;4.60;;;17.70;99.90;;;;;;4993845;28;20389;-87
2022/07/05 05:07:45;;;;;;;6.68;4.72;;;17.70;99.90;;;;;;4993847;28;20399;-87
2022/07/05 05:10:13;;;;;;;8.80;5.32;;;17.70;99.90;;;;;;5008482;28;20393;-87
2022/07/05 05:12:40;;;;;;;6.53;4.70;;;17.70;99.90;;;;;;5008816;28;20408;-85
2022/07/05 05:15:09;;;;;;;6.93;5.18;;;17.60;99.90;;;;;;5003608;28;20403;-87
2022/07/05 05:17:39;;;;;;;7.80;5.57;;;17.60;99.90;;;;;;5005739;28;20932;-87
2022/07/05 05:20:12;;;;;;;6.73;5.27;;;17.70;99.90;;;;;;5007183;28;20411;-87
2022/07/05 05:22:41;;;;;;;7.35;5.10;;;17.60;99.90;;;;;;5007131;28;20444;-88
2022/07/05 05:25:09;;;;;;;7.38;5.30;;;17.60;99.90;;;;;;4993681;28;20393;-87
2022/07/05 05:27:42;;;;;;;9.50;5.68;;;17.70;99.90;;;;;;5005201;28;20389;-88
2022/07/05 05:30:16;;;;;;;7.17;5.30;;;17.70;99.90;;;;;;5008604;28;20391;-86
2022/07/05 05:32:44;;;;;;;5.93;4.88;;;17.60;99.90;;;;;;5012399;28;20409;-87
2022/07/05 05:35:12;;;;;;;7.40;5.53;;;17.70;99.90;;;;;;5012764;28;20425;-87
2022/07/05 05:37:50;;;;;;;7.72;5.28;;;17.80;99.90;;;;;;5012481;28;20387;-88
2022/07/05 05:40:18;;;;;;;6.43;5.20;;;17.80;99.90;;;;;;5011569;28;20908;-87
2022/07/05 05:42:47;;;;;;;6.00;4.50;;;17.80;99.90;;;;;;5012376;28;20413;-88
2022/07/05 05:45:15;;;;;;;5.75;4.78;;;17.80;99.90;;;;;;5012529;28;20391;-87
2022/07/05 05:47:46;;;;;;;5.67;4.77;;;17.80;99.90;;;;;;5011348;28;20383;-87
2022/07/05 05:50:17;;;;;;;7.57;4.80;;;17.80;99.90;;;;;;5012393;28;20393;-88
2022/07/05 05:52:45;;;;;;;6.28;4.70;;;17.90;99.90;;;;;;5011064;28;20451;-88
2022/07/05 05:55:12;;;;;;;5.82;4.50;;;17.90;99.90;;;;;;5012572;28;20881;-87
2022/07/05 05:57:41;;;;;;;6.77;4.57;;;17.90;99.90;;;;;;5012246;28;20399;-88
2022/07/05 06:00:10;;;;;;;5.63;4.28;;;18.00;99.90;;;;;;5011564;28;20789;-87
2022/07/05 06:02:39;;;;;;;7.70;4.80;;;18.00;99.90;;;;;;5011714;28;20878;-88
2022/07/05 06:05:08;;;;;;;5.00;3.95;;;18.00;99.90;;;;;;5012323;28;20490;-88
2022/07/05 06:07:52;;;;;;;5.35;3.88;;;18.10;99.90;;;;;;5010670;28;20404;-87
2022/07/05 06:10:31;;;;;;;5.35;3.88;;;18.10;99.90;;;;;;5010368;28;20508;-88
2022/07/05 06:13:02;;;;;;;6.72;3.70;;;18.10;99.90;;;;;;5003912;28;20393;-87
2022/07/05 06:15:28;;;;;;;6.30;3.97;;;18.00;99.90;;;;;;4999470;28;20406;-88
2022/07/05 06:17:56;;;;;;;3.63;3.20;;;18.10;99.90;;;;;;5010055;28;20391;-86
2022/07/05 06:20:26;;;;;;;4.45;3.45;;;18.20;99.90;;;;;;4995643;28;20389;-87
2022/07/05 06:22:55;;;;;;;6.03;3.45;;;18.20;99.90;;;;;;4994608;28;20527;-87
2022/07/05 06:25:23;;;;;;;4.57;3.10;;;18.20;99.90;;;;;;4992512;28;20393;-89
2022/07/05 06:27:54;;;;;;;4.70;2.90;;;18.20;99.90;;;;;;4999032;28;20413;-87
2022/07/05 06:30:23;;;;;;;4.47;2.85;;;18.20;99.90;;;;;;4997911;28;20898;-87
2022/07/05 06:32:51;;;;;;;4.60;3.05;;;18.20;99.90;;;;;;4992561;28;20825;-88
2022/07/05 06:35:19;;;;;;;3.67;2.60;;;18.20;99.90;;;;;;4992512;28;20400;-87
2022/07/05 06:37:57;;;;;;;4.00;2.50;;;18.10;99.90;;;;;;4992276;28;20393;-86
2022/07/05 06:40:27;;;;;;;4.15;2.13;;;18.10;99.90;;;;;;4995474;28;20385;-87
2022/07/05 06:42:58;;;;;;;3.25;2.38;;;18.10;99.90;;;;;;4992532;28;20487;-88
2022/07/05 06:45:44;;;;;;;4.20;2.00;;;18.20;99.90;;;;;;4992312;28;20527;-87
2022/07/05 06:48:13;;;;;;;4.25;2.20;;;18.20;99.90;;;;;;4992151;28;20877;-88
2022/07/05 06:50:42;;;;;;;3.78;2.15;;;18.20;99.90;;;;;;4992404;28;20400;-87
2022/07/05 06:53:11;;;;;;;4.65;2.08;;;18.30;99.90;;;;;;4992073;28;20397;-88
2022/07/05 06:55:44;;;;;;;3.95;1.80;;;18.30;99.90;;;;;;4992147;28;20397;-87
2022/07/05 06:58:19;;;;;;;5.47;1.80;;;18.30;99.90;;;;;;4992614;28;20388;-86
2022/07/05 07:00:47;;;;;;;3.38;2.00;;;18.30;99.90;;;;;;4975422;28;20404;-87
2022/07/05 07:03:34;;;;;;;2.75;1.50;;;18.40;99.90;;;;;;5010844;28;20874;-87
2022/07/05 07:06:22;;;;;;;2.85;1.58;;;18.40;99.90;;;;;;5003701;28;20458;-86
2022/07/05 07:11:35;;;;;;;3.83;1.80;;;18.40;99.90;;;;;;4994837;28;20388;-87
2022/07/05 07:14:02;;;;;;;2.60;1.20;;;18.40;99.90;;;;;;5006080;28;20405;-87
2022/07/05 07:16:30;;;;;;;3.33;1.40;;;18.40;99.90;;;;;;5000109;28;20405;-87
2022/07/05 07:18:58;;;;;;;2.13;1.38;;;18.40;99.90;;;;;;4996514;28;20395;-86
2022/07/05 07:21:42;;;;;;;2.22;1.20;;;18.40;99.90;;;;;;5002717;28;20413;-87
2022/07/05 07:24:11;;;;;;;4.32;1.40;;;18.30;99.90;;;;;;5010452;28;20411;-86
2022/07/05 07:29:26;;;;;;;2.15;1.13;;;18.40;99.90;;;;;;4999832;28;20862;-89
2022/07/05 07:31:55;;;;;;;3.60;1.50;;;18.50;99.90;;;;;;5002686;28;20403;-89
2022/07/05 07:34:22;;;;;;;5.05;1.70;;;18.50;99.90;;;;;;5007774;28;20847;-87
2022/07/05 07:36:51;;;;;;;3.85;1.52;;;18.60;99.90;;;;;;5015042;28;20407;-86
2022/07/05 07:39:19;;;;;;;3.05;1.40;;;18.70;99.90;;;;;;5007305;28;20399;-87
2022/07/05 07:41:46;;;;;;;3.53;1.52;;;18.80;99.90;;;;;;4995586;28;20872;-88
2022/07/05 07:44:14;;;;;;;2.15;1.17;;;18.80;99.90;;;;;;4995395;28;20895;-88
2022/07/05 07:46:41;;;;;;;4.43;1.50;;;18.80;99.90;;;;;;5012753;28;20899;-88
2022/07/05 07:49:09;;;;;;;2.47;1.23;;;18.80;99.90;;;;;;5013666;28;20402;-87
2022/07/05 07:51:37;;;;;;;4.03;1.33;;;19.00;99.90;;;;;;5013755;28;20391;-88
2022/07/05 07:54:05;;;;;;;4.93;1.63;;;19.00;99.90;;;;;;5013564;28;20874;-87
2022/07/05 07:56:32;;;;;;;4.03;1.20;;;18.90;99.90;;;;;;5013689;28;20482;-86
2022/07/05 07:59:00;;;;;;;3.17;1.50;;;18.90;99.90;;;;;;5014874;28;20387;-85
2022/07/05 08:01:28;;;;;;;4.00;1.60;;;18.90;99.90;;;;;;5014502;28;20392;-87
2022/07/05 08:03:55;;;;;;;3.47;1.30;;;18.90;99.90;;;;;;5014440;28;20939;-86
2022/07/05 08:06:23;;;;;;;3.20;1.48;;;19.00;99.90;;;;;;5014012;28;20838;-86
2022/07/05 08:08:51;;;;;;;2.75;1.40;;;19.10;99.90;;;;;;4994535;28;20472;-86
2022/07/05 08:11:19;;;;;;;4.87;1.37;;;19.20;99.90;;;;;;5001406;28;20415;-86
2022/07/05 08:13:47;;;;;;;4.25;1.40;;;19.20;99.90;;;;;;5017191;28;20455;-86
2022/07/05 08:16:15;;;;;;;3.15;1.33;;;19.00;99.90;;;;;;5003066;28;20400;-86
2022/07/05 08:21:31;;;;;;;3.40;1.38;;;19.10;99.90;;;;;;4993763;28;20393;-87
2022/07/05 08:24:10;;;;;;;4.82;1.10;;;19.20;99.90;;;;;;4994848;28;20408;-87
2022/07/05 08:26:38;;;;;;;3.53;1.20;;;19.10;99.90;;;;;;4994744;28;20392;-87
2022/07/05 08:29:08;;;;;;;2.22;1.00;;;19.20;99.90;;;;;;5009651;28;20823;-87
2022/07/05 08:31:42;;;;;;;4.63;1.30;;;19.30;99.90;;;;;;4994639;28;20904;-86
2022/07/05 08:34:11;;;;;;;1.85;1.13;;;19.30;99.90;;;;;;4995269;28;20408;-87
2022/07/05 08:36:41;;;;;;;2.83;1.20;;;19.20;99.90;;;;;;4995396;28;20792;-86
2022/07/05 08:39:09;;;;;;;2.85;1.42;;;19.10;99.90;;;;;;4994634;28;20396;-87
2022/07/05 08:41:39;;;;;;;3.08;1.05;;;19.00;99.90;;;;;;4994561;28;20466;-88
2022/07/05 08:44:09;;;;;;;8.00;1.80;;;19.00;99.90;;;;;;4994313;28;20393;-88
2022/07/05 08:46:42;;;;;;;4.15;1.17;;;19.10;99.90;;;;;;5009357;28;20933;-86
2022/07/05 08:49:12;;;;;;;3.20;1.58;;;19.20;99.90;;;;;;4994440;28;20759;-86
2022/07/05 08:51:42;;;;;;;2.40;1.30;;;19.20;99.90;;;;;;4995785;28;20429;-84
2022/07/05 08:54:11;;;;;;;2.40;1.40;;;19.10;99.90;;;;;;5009984;28;20435;-87
2022/07/05 08:56:46;;;;;;;2.55;1.38;;;19.00;99.90;;;;;;5012547;28;20422;-88
2022/07/05 08:59:34;;;;;;;2.47;1.40;;;19.00;99.90;;;;;;5006831;28;20413;-87
2022/07/05 09:02:02;;;;;;;4.40;1.40;;;19.10;99.90;;;;;;5004536;28;20532;-88
2022/07/05 09:04:37;;;;;;;4.07;1.58;;;19.40;99.90;;;;;;4994872;28;20401;-88
2022/07/05 09:07:07;;;;;;;1.98;1.15;;;19.60;99.90;;;;;;4993108;28;20393;-88
2022/07/05 09:09:43;;;;;;;5.38;1.48;;;19.50;99.90;;;;;;4992831;28;20504;-88
2022/07/05 09:12:15;;;;;;;3.85;1.55;;;19.40;99.90;;;;;;5019735;28;20449;-87
2022/07/05 09:14:56;;;;;;;2.63;1.58;;;19.50;99.90;;;;;;5019765;28;20401;-88
2022/07/05 09:17:28;;;;;;;3.55;1.50;;;19.60;99.90;;;;;;5024546;28;20439;-84
2022/07/05 09:20:09;;;;;;;3.53;1.50;;;19.60;99.90;;;;;;5021877;28;20430;-87
2022/07/05 09:22:52;;;;;;;4.00;1.50;;;19.70;99.90;;;;;;5020858;28;20391;-89
2022/07/05 09:25:30;;;;;;;3.58;1.50;;;19.90;99.90;;;;;;5022792;28;20405;-87
2022/07/05 09:28:00;;;;;;;3.22;1.30;;;20.10;99.90;;;;;;5006474;28;20902;-86
2022/07/05 09:30:37;;;;;;;3.83;1.30;;;20.20;99.90;;;;;;4993580;28;20951;-86
2022/07/05 09:33:17;;;;;;;2.60;1.17;;;20.30;99.90;;;;;;5008180;28;20390;-88
2022/07/05 09:35:57;;;;;;;1.60;1.15;;;20.30;99.90;;;;;;4993537;28;20393;-87
2022/07/05 09:38:28;;;;;;;3.28;1.42;;;20.30;99.90;;;;;;4990530;28;20876;-88
2022/07/05 09:40:58;;;;;;;5.45;1.27;;;20.40;99.90;;;;;;5021527;28;20418;-88
2022/07/05 09:43:28;;;;;;;3.50;1.33;;;20.40;99.90;;;;;;5011924;28;20430;-88
2022/07/05 09:46:01;;;;;;;4.17;1.30;;;20.50;99.90;;;;;;5012756;28;20399;-89
2022/07/05 09:48:31;;;;;;;4.88;1.30;;;20.40;99.90;;;;;;5013903;28;20442;-85
2022/07/05 09:51:09;;;;;;;3.75;1.30;;;20.30;99.90;;;;;;5011861;28;20391;-86
2022/07/05 09:53:59;;;;;;;4.93;1.40;;;20.20;99.90;;;;;;5011646;28;20429;-88
2022/07/05 09:56:29;;;;;;;2.50;1.40;;;20.10;99.90;;;;;;5012179;28;20391;-88
2022/07/05 09:59:15;;;;;;;2.85;1.30;;;20.20;99.90;;;;;;5012766;28;20774;-88
2022/07/05 10:01:43;;;;;;;4.90;1.23;;;20.40;99.90;;;;;;5012397;28;20393;-87
2022/07/05 10:04:11;;;;;;;2.73;1.40;;;20.40;99.90;;;;;;5012463;28;20421;-87
2022/07/05 10:06:39;;;;;;;5.35;1.63;;;20.40;99.90;;;;;;5010961;28;20482;-86
2022/07/05 10:09:09;;;;;;;2.58;1.20;;;20.60;99.90;;;;;;5012366;28;20387;-86
2022/07/05 10:11:41;;;;;;;4.28;1.60;;;20.60;99.90;;;;;;5012052;28;20410;-87
2022/07/05 10:14:17;;;;;;;7.15;1.60;;;20.60;99.90;;;;;;5011199;28;20403;-87
2022/07/05 10:16:57;;;;;;;1.95;1.10;;;20.60;99.90;;;;;;5012174;28;20392;-87
2022/07/05 10:19:33;;;;;;;2.40;1.00;;;20.70;99.90;;;;;;5012654;28;20395;-88
2022/07/05 10:22:01;;;;;;;4.05;1.30;;;20.70;99.90;;;;;;5012238;28;20383;-86
2022/07/05 10:24:47;;;;;;;3.60;1.35;;;20.70;99.90;;;;;;5011091;28;20450;-85
2022/07/05 10:27:17;;;;;;;4.38;1.15;;;20.80;99.90;;;;;;5012077;28;20395;-88
2022/07/05 10:29:45;;;;;;;2.95;1.30;;;20.90;99.90;;;;;;5011975;28;20910;-86
2022/07/05 10:32:15;;;;;;;3.15;1.10;;;21.00;99.90;;;;;;5012037;28;20387;-86
2022/07/05 10:34:46;;;;;;;4.03;1.10;;;20.90;99.90;;;;;;5011675;28;20409;-87
2022/07/05 10:37:28;;;;;;;5.27;1.30;;;21.00;99.90;;;;;;5011840;28;20394;-88
2022/07/05 10:40:01;;;;;;;3.43;1.20;;;21.10;99.90;;;;;;5011706;28;20387;-87
2022/07/05 10:42:41;;;;;;;1.87;1.10;;;21.10;99.90;;;;;;5011658;28;20858;-86
2022/07/05 10:45:32;;;;;;;3.20;1.17;;;21.10;99.90;;;;;;5013614;28;20486;-87
2022/07/05 10:48:16;;;;;;;3.37;1.20;;;21.20;99.90;;;;;;5013267;28;20409;-88
2022/07/05 10:50:51;;;;;;;2.55;1.10;;;21.40;99.90;;;;;;5015567;28;20402;-87
2022/07/05 10:53:22;;;;;;;3.22;0.90;;;21.40;99.90;;;;;;5014878;28;20399;-87
2022/07/05 10:56:03;;;;;;;5.45;1.20;;;21.20;99.90;;;;;;5015692;28;20901;-87
2022/07/05 10:58:37;;;;;;;3.17;1.00;;;21.00;99.90;;;;;;5014369;28;20399;-87
2022/07/05 11:01:20;;;;;;;2.67;0.90;;;21.00;99.90;;;;;;5015701;28;20387;-87
2022/07/05 11:04:00;;;;;;;3.72;1.20;;;21.20;99.90;;;;;;5015478;28;20434;-86
2022/07/05 11:06:39;;;;;;;8.30;1.30;;;21.40;99.90;;;;;;5014605;28;20476;-86
2022/07/05 11:09:13;;;;;;;2.63;0.95;;;21.50;99.90;;;;;;5015442;28;20387;-87
2022/07/05 11:11:51;;;;;;;2.58;0.98;;;21.70;99.90;;;;;;5015132;28;20464;-86
2022/07/05 11:14:39;;;;;;;4.30;1.10;;;21.70;99.90;;;;;;5013927;28;20442;-87
2022/07/05 11:17:13;;;;;;;6.10;1.50;;;21.70;99.90;;;;;;5015540;28;20414;-86
2022/07/05 11:20:08;;;;;;;3.08;0.90;;;21.80;99.90;;;;;;5014722;28;20781;-88
2022/07/05 11:22:56;;;;;;;2.47;0.88;;;21.80;99.90;;;;;;5014917;28;20395;-88
2022/07/05 11:25:24;;;;;;;2.38;1.08;;;21.50;99.90;;;;;;5015139;28;20885;-86
2022/07/05 11:28:31;;;;;;;2.00;0.85;;;21.50;99.90;;;;;;5015123;28;20482;-88
2022/07/05 11:30:59;;;;;;;4.10;1.00;;;21.60;99.90;;;;;;5013987;28;20939;-88
2022/07/05 11:33:36;;;;;;;2.58;0.98;;;21.80;99.90;;;;;;5015050;28;20383;-87
2022/07/05 11:36:07;;;;;;;3.58;1.13;;;21.60;99.90;;;;;;5015128;28;20387;-87
2022/07/05 11:38:54;;;;;;;2.83;1.00;;;21.40;99.90;;;;;;5014636;28;20446;-88
2022/07/05 11:41:41;;;;;;;3.30;1.00;;;21.60;99.90;;;;;;5007864;28;20404;-85
2022/07/05 11:44:10;;;;;;;3.25;1.15;;;21.60;99.90;;;;;;5006517;28;20461;-88
2022/07/05 11:46:37;;;;;;;2.63;1.05;;;21.80;99.90;;;;;;5005260;28;20912;-85
2022/07/05 11:49:22;;;;;;;4.25;1.00;;;21.90;99.90;;;;;;5010647;28;20419;-87
2022/07/05 11:51:58;;;;;;;2.83;0.90;;;22.20;99.90;;;;;;5004559;28;22098;-86
2022/07/05 11:54:30;;;;;;;3.43;1.00;;;22.30;99.90;;;;;;5007104;28;20414;-87
2022/07/05 11:57:00;;;;;;;5.87;1.30;;;22.40;99.90;;;;;;5004597;28;20403;-86
2022/07/05 11:59:27;;;;;;;3.10;1.00;;;22.60;99.90;;;;;;5000384;28;20490;-88
2022/07/05 12:01:55;;;;;;;4.72;1.20;;;22.50;99.90;;;;;;4999245;28;20425;-86
2022/07/05 12:04:25;;;;;;;2.63;0.90;;;22.60;99.90;;;;;;4995818;28;20394;-87
2022/07/05 12:06:55;;;;;;;3.17;1.13;;;22.50;99.90;;;;;;4996415;28;20421;-86
2022/07/05 12:15:09;;;;;;;6.15;1.20;;;22.00;99.90;;;;;;4995169;28;20416;-87
2022/07/05 12:17:39;;;;;;;3.20;1.15;;;22.30;99.90;;;;;;4994902;28;20404;-87
2022/07/05 12:20:08;;;;;;;3.70;0.95;;;22.40;99.90;;;;;;5004061;28;20393;-86
2022/07/05 12:22:39;;;;;;;5.53;1.00;;;22.50;99.90;;;;;;4995973;28;20391;-86
2022/07/05 12:25:09;;;;;;;3.88;0.90;;;22.60;99.90;;;;;;4995668;28;20405;-87
2022/07/05 12:27:38;;;;;;;3.65;0.93;;;22.40;99.90;;;;;;4995271;28;20395;-86
2022/07/05 12:30:09;;;;;;;5.13;1.00;;;22.30;99.90;;;;;;4994842;28;20405;-85
2022/07/05 12:32:53;;;;;;;2.72;0.90;;;21.80;99.90;;;;;;4994635;28;20420;-87
2022/07/05 12:35:31;;;;;;;2.60;0.80;;;21.70;99.90;;;;;;4994425;28;20444;-86
2022/07/05 12:38:07;;;;;;;3.40;1.00;;;21.60;99.90;;;;;;4994750;28;20396;-86
2022/07/05 12:40:36;;;;;;;1.98;0.80;;;21.50;99.90;;;;;;4994689;28;20459;-87
2022/07/05 12:43:13;;;;;;;3.33;1.00;;;21.40;99.90;;;;;;4994264;28;20455;-85
2022/07/05 12:46:04;;;;;;;3.28;0.90;;;21.60;99.90;;;;;;4993370;28;20393;-88
2022/07/05 12:48:34;;;;;;;4.03;1.00;;;21.70;99.90;;;;;;4999430;28;20400;-87
2022/07/05 12:51:02;;;;;;;4.63;1.00;;;21.90;99.90;;;;;;5013544;28;20403;-88
2022/07/05 12:59:59;;;;;;;4.22;0.90;;;21.60;99.90;;;;;;5012700;28;20395;-88
2022/07/05 13:02:53;;;;;;;2.55;0.80;;;21.80;99.90;;;;;;5012342;28;20393;-87
2022/07/05 13:05:23;;;;;;;4.60;0.90;;;22.00;99.90;;;;;;4992955;28;20979;-87
2022/07/05 13:07:51;;;;;;;3.83;0.98;;;22.20;99.90;;;;;;5007034;28;20392;-86
2022/07/05 13:10:23;;;;;;;3.47;0.80;;;22.20;99.90;;;;;;5005588;28;20413;-85
2022/07/05 13:12:51;;;;;;;3.15;0.80;;;22.30;99.90;;;;;;5012327;28;20388;-87
2022/07/05 13:15:19;;;;;;;1.92;0.82;;;22.10;99.90;;;;;;5013072;28;20402;-86
2022/07/05 13:17:47;;;;;;;3.38;1.02;;;22.00;99.90;;;;;;5002481;28;20491;-88
2022/07/05 13:20:22;;;;;;;2.90;0.73;;;22.00;99.90;;;;;;4993759;28;20389;-86
2022/07/05 13:22:50;;;;;;;4.22;1.10;;;21.80;99.90;;;;;;4993680;28;20428;-85
2022/07/05 13:25:18;;;;;;;15.65;1.90;;;21.80;99.90;;;;;;4993443;28;20906;-87
2022/07/05 13:27:45;;;;;;;3.13;0.80;;;21.90;99.90;;;;;;4994442;28;20397;-87
2022/07/05 13:30:13;;;;;;;1.70;0.60;;;22.10;99.90;;;;;;5011955;28;20391;-87